sensor_id;sensor_type;location;lat;lon;timestamp;P1;durP1;ratioP1;P2;durP2;ratioP2
2201;SDS011;1107;48.654;9.250;2023-05-18T00:00:45;7.77;;;7.17;;
2201;SDS011;1107;48.654;9.250;2023-05-18T00:03:12;8.43;;;7.63;;
2201;SDS011;1107;48.654;9.250;2023-05-18T00:05:39;7.90;;;6.93;;
2201;SDS011;1107;48.654;9.250;2023-05-18T00:08:07;7.50;;;6.80;;
2201;SDS011;1107;48.654;9.250;2023-05-18T00:10:33;8.40;;;6.90;;
2201;SDS011;1107;48.654;9.250;2023-05-18T00:13:02;6.47;;;6.07;;
2201;SDS011;1107;48.654;9.250;2023-05-18T00:15:32;7.10;;;6.40;;
2201;SDS011;1107;48.654;9.250;2023-05-18T00:17:59;10.82;;;7.65;;
2201;SDS011;1107;48.654;9.250;2023-05-18T00:20:26;8.38;;;6.43;;
2201;SDS011;1107;48.654;9.250;2023-05-18T00:22:53;8.15;;;7.40;;
2201;SDS011;1107;48.654;9.250;2023-05-18T00:25:20;8.57;;;7.78;;
2201;SDS011;1107;48.654;9.250;2023-05-18T00:27:48;7.60;;;6.70;;
2201;SDS011;1107;48.654;9.250;2023-05-18T00:30:17;8.68;;;7.75;;
2201;SDS011;1107;48.654;9.250;2023-05-18T00:32:44;15.45;;;7.78;;
2201;SDS011;1107;48.654;9.250;2023-05-18T00:35:11;10.18;;;7.60;;
2201;SDS011;1107;48.654;9.250;2023-05-18T00:37:38;10.25;;;7.80;;
2201;SDS011;1107;48.654;9.250;2023-05-18T00:40:05;7.20;;;6.80;;
2201;SDS011;1107;48.654;9.250;2023-05-18T00:42:33;7.70;;;7.13;;
2201;SDS011;1107;48.654;9.250;2023-05-18T00:45:00;7.82;;;7.15;;
2201;SDS011;1107;48.654;9.250;2023-05-18T00:47:28;16.42;;;8.38;;
2201;SDS011;1107;48.654;9.250;2023-05-18T00:49:55;8.73;;;7.85;;
2201;SDS011;1107;48.654;9.250;2023-05-18T00:52:22;10.60;;;8.35;;
2201;SDS011;1107;48.654;9.250;2023-05-18T00:54:50;7.95;;;7.32;;
2201;SDS011;1107;48.654;9.250;2023-05-18T00:57:17;9.35;;;8.50;;
2201;SDS011;1107;48.654;9.250;2023-05-18T00:59:45;11.32;;;8.82;;
2201;SDS011;1107;48.654;9.250;2023-05-18T01:02:12;15.63;;;8.70;;
2201;SDS011;1107;48.654;9.250;2023-05-18T01:04:41;11.45;;;8.40;;
2201;SDS011;1107;48.654;9.250;2023-05-18T01:07:08;17.52;;;9.07;;
2201;SDS011;1107;48.654;9.250;2023-05-18T01:09:36;23.08;;;9.55;;
2201;SDS011;1107;48.654;9.250;2023-05-18T01:12:05;8.70;;;8.00;;
2201;SDS011;1107;48.654;9.250;2023-05-18T01:14:43;11.63;;;8.23;;
2201;SDS011;1107;48.654;9.250;2023-05-18T01:17:19;10.18;;;9.18;;
2201;SDS011;1107;48.654;9.250;2023-05-18T01:25:38;9.05;;;8.25;;
2201;SDS011;1107;48.654;9.250;2023-05-18T01:28:17;11.93;;;8.55;;
2201;SDS011;1107;48.654;9.250;2023-05-18T01:30:50;11.63;;;9.07;;
2201;SDS011;1107;48.654;9.250;2023-05-18T01:33:18;10.90;;;9.75;;
2201;SDS011;1107;48.654;9.250;2023-05-18T01:35:45;12.02;;;9.63;;
2201;SDS011;1107;48.654;9.250;2023-05-18T01:38:13;17.00;;;9.95;;
2201;SDS011;1107;48.654;9.250;2023-05-18T01:40:43;16.52;;;9.52;;
2201;SDS011;1107;48.654;9.250;2023-05-18T01:43:17;14.27;;;9.15;;
2201;SDS011;1107;48.654;9.250;2023-05-18T01:45:48;12.35;;;10.15;;
2201;SDS011;1107;48.654;9.250;2023-05-18T01:48:20;13.75;;;9.30;;
2201;SDS011;1107;48.654;9.250;2023-05-18T01:50:51;17.35;;;9.85;;
2201;SDS011;1107;48.654;9.250;2023-05-18T01:53:23;18.77;;;9.85;;
2201;SDS011;1107;48.654;9.250;2023-05-18T01:55:53;21.05;;;10.70;;
2201;SDS011;1107;48.654;9.250;2023-05-18T01:58:22;19.17;;;8.82;;
2201;SDS011;1107;48.654;9.250;2023-05-18T02:00:50;12.20;;;8.52;;
2201;SDS011;1107;48.654;9.250;2023-05-18T02:03:17;18.85;;;8.90;;
2201;SDS011;1107;48.654;9.250;2023-05-18T02:05:44;11.88;;;9.18;;
2201;SDS011;1107;48.654;9.250;2023-05-18T02:08:11;10.85;;;8.30;;
2201;SDS011;1107;48.654;9.250;2023-05-18T02:10:38;12.68;;;9.30;;
2201;SDS011;1107;48.654;9.250;2023-05-18T02:13:05;9.67;;;8.63;;
2201;SDS011;1107;48.654;9.250;2023-05-18T02:15:33;13.23;;;9.55;;
2201;SDS011;1107;48.654;9.250;2023-05-18T02:18:00;8.73;;;7.60;;
2201;SDS011;1107;48.654;9.250;2023-05-18T02:20:27;10.82;;;7.93;;
2201;SDS011;1107;48.654;9.250;2023-05-18T02:22:59;11.48;;;8.90;;
2201;SDS011;1107;48.654;9.250;2023-05-18T02:25:26;11.90;;;8.68;;
2201;SDS011;1107;48.654;9.250;2023-05-18T02:27:53;10.98;;;7.78;;
2201;SDS011;1107;48.654;9.250;2023-05-18T02:30:21;14.45;;;8.80;;
2201;SDS011;1107;48.654;9.250;2023-05-18T02:32:49;10.55;;;9.55;;
2201;SDS011;1107;48.654;9.250;2023-05-18T02:35:16;12.43;;;9.13;;
2201;SDS011;1107;48.654;9.250;2023-05-18T02:37:43;19.17;;;9.50;;
2201;SDS011;1107;48.654;9.250;2023-05-18T02:40:11;10.02;;;8.02;;
2201;SDS011;1107;48.654;9.250;2023-05-18T02:42:40;10.50;;;9.05;;
2201;SDS011;1107;48.654;9.250;2023-05-18T02:45:07;10.73;;;8.90;;
2201;SDS011;1107;48.654;9.250;2023-05-18T02:47:34;15.95;;;9.82;;
2201;SDS011;1107;48.654;9.250;2023-05-18T02:50:03;11.05;;;9.57;;
2201;SDS011;1107;48.654;9.250;2023-05-18T02:52:31;15.60;;;9.40;;
2201;SDS011;1107;48.654;9.250;2023-05-18T02:54:58;12.60;;;9.00;;
2201;SDS011;1107;48.654;9.250;2023-05-18T02:57:24;10.40;;;9.20;;
2201;SDS011;1107;48.654;9.250;2023-05-18T02:59:51;10.68;;;8.93;;
2201;SDS011;1107;48.654;9.250;2023-05-18T03:02:18;12.48;;;9.95;;
2201;SDS011;1107;48.654;9.250;2023-05-18T03:04:47;14.93;;;8.05;;
2201;SDS011;1107;48.654;9.250;2023-05-18T03:07:22;9.55;;;7.75;;
2201;SDS011;1107;48.654;9.250;2023-05-18T03:09:51;11.05;;;7.82;;
2201;SDS011;1107;48.654;9.250;2023-05-18T03:12:18;8.18;;;7.47;;
2201;SDS011;1107;48.654;9.250;2023-05-18T03:14:45;11.68;;;7.18;;
2201;SDS011;1107;48.654;9.250;2023-05-18T03:17:12;8.77;;;7.40;;
2201;SDS011;1107;48.654;9.250;2023-05-18T03:19:39;11.77;;;6.22;;
2201;SDS011;1107;48.654;9.250;2023-05-18T03:22:06;8.90;;;7.82;;
2201;SDS011;1107;48.654;9.250;2023-05-18T03:24:34;19.42;;;8.68;;
2201;SDS011;1107;48.654;9.250;2023-05-18T03:27:04;16.17;;;9.35;;
2201;SDS011;1107;48.654;9.250;2023-05-18T03:29:31;9.00;;;8.20;;
2201;SDS011;1107;48.654;9.250;2023-05-18T03:31:58;8.98;;;8.10;;
2201;SDS011;1107;48.654;9.250;2023-05-18T03:34:25;10.20;;;8.40;;
2201;SDS011;1107;48.654;9.250;2023-05-18T03:36:52;9.60;;;8.65;;
2201;SDS011;1107;48.654;9.250;2023-05-18T03:39:19;9.55;;;8.43;;
2201;SDS011;1107;48.654;9.250;2023-05-18T03:41:48;12.23;;;8.48;;
2201;SDS011;1107;48.654;9.250;2023-05-18T03:44:15;10.55;;;8.13;;
2201;SDS011;1107;48.654;9.250;2023-05-18T03:46:42;9.70;;;8.57;;
2201;SDS011;1107;48.654;9.250;2023-05-18T03:49:09;10.43;;;8.00;;
2201;SDS011;1107;48.654;9.250;2023-05-18T03:51:35;10.25;;;8.25;;
2201;SDS011;1107;48.654;9.250;2023-05-18T03:54:03;8.07;;;7.47;;
2201;SDS011;1107;48.654;9.250;2023-05-18T03:56:30;11.02;;;7.95;;
2201;SDS011;1107;48.654;9.250;2023-05-18T03:58:58;8.43;;;7.93;;
2201;SDS011;1107;48.654;9.250;2023-05-18T04:01:25;8.38;;;7.65;;
2201;SDS011;1107;48.654;9.250;2023-05-18T04:03:54;9.10;;;8.13;;
2201;SDS011;1107;48.654;9.250;2023-05-18T04:06:21;9.43;;;7.80;;
2201;SDS011;1107;48.654;9.250;2023-05-18T04:11:57;19.08;;;7.68;;
2201;SDS011;1107;48.654;9.250;2023-05-18T04:14:26;20.50;;;8.75;;
2201;SDS011;1107;48.654;9.250;2023-05-18T04:16:53;10.73;;;8.32;;
2201;SDS011;1107;48.654;9.250;2023-05-18T04:19:20;11.73;;;8.35;;
2201;SDS011;1107;48.654;9.250;2023-05-18T04:21:48;9.95;;;7.95;;
2201;SDS011;1107;48.654;9.250;2023-05-18T04:24:15;11.20;;;8.00;;
2201;SDS011;1107;48.654;9.250;2023-05-18T04:26:43;11.25;;;8.15;;
2201;SDS011;1107;48.654;9.250;2023-05-18T04:29:10;19.58;;;8.27;;
2201;SDS011;1107;48.654;9.250;2023-05-18T04:31:38;17.95;;;8.27;;
2201;SDS011;1107;48.654;9.250;2023-05-18T04:34:06;9.05;;;8.00;;
2201;SDS011;1107;48.654;9.250;2023-05-18T04:36:33;23.50;;;8.55;;
2201;SDS011;1107;48.654;9.250;2023-05-18T04:39:03;11.23;;;9.05;;
2201;SDS011;1107;48.654;9.250;2023-05-18T04:41:31;11.05;;;9.65;;
2201;SDS011;1107;48.654;9.250;2023-05-18T04:43:59;15.15;;;9.27;;
2201;SDS011;1107;48.654;9.250;2023-05-18T04:46:27;8.32;;;7.63;;
2201;SDS011;1107;48.654;9.250;2023-05-18T04:48:55;8.90;;;8.10;;
2201;SDS011;1107;48.654;9.250;2023-05-18T04:51:23;11.40;;;10.25;;
2201;SDS011;1107;48.654;9.250;2023-05-18T04:53:50;15.98;;;8.63;;
2201;SDS011;1107;48.654;9.250;2023-05-18T04:56:17;9.35;;;8.45;;
2201;SDS011;1107;48.654;9.250;2023-05-18T04:58:46;9.70;;;8.82;;
2201;SDS011;1107;48.654;9.250;2023-05-18T05:01:14;14.77;;;9.10;;
2201;SDS011;1107;48.654;9.250;2023-05-18T05:03:41;11.13;;;8.00;;
2201;SDS011;1107;48.654;9.250;2023-05-18T05:06:10;13.25;;;8.07;;
2201;SDS011;1107;48.654;9.250;2023-05-18T05:08:37;9.25;;;7.75;;
2201;SDS011;1107;48.654;9.250;2023-05-18T05:11:03;18.15;;;9.10;;
2201;SDS011;1107;48.654;9.250;2023-05-18T05:13:30;10.83;;;7.60;;
2201;SDS011;1107;48.654;9.250;2023-05-18T05:15:59;7.10;;;6.70;;
2201;SDS011;1107;48.654;9.250;2023-05-18T05:18:25;11.20;;;7.43;;
2201;SDS011;1107;48.654;9.250;2023-05-18T05:20:54;10.00;;;6.78;;
2201;SDS011;1107;48.654;9.250;2023-05-18T05:23:22;9.93;;;7.50;;
2201;SDS011;1107;48.654;9.250;2023-05-18T05:25:49;10.43;;;6.43;;
2201;SDS011;1107;48.654;9.250;2023-05-18T05:28:16;7.13;;;6.43;;
2201;SDS011;1107;48.654;9.250;2023-05-18T05:30:43;8.50;;;6.10;;
2201;SDS011;1107;48.654;9.250;2023-05-18T05:33:10;6.37;;;5.87;;
2201;SDS011;1107;48.654;9.250;2023-05-18T05:35:37;6.30;;;5.70;;
2201;SDS011;1107;48.654;9.250;2023-05-18T05:38:04;5.90;;;5.53;;
2201;SDS011;1107;48.654;9.250;2023-05-18T05:40:32;6.20;;;5.83;;
2201;SDS011;1107;48.654;9.250;2023-05-18T05:42:59;12.90;;;6.00;;
2201;SDS011;1107;48.654;9.250;2023-05-18T05:45:26;6.37;;;5.77;;
2201;SDS011;1107;48.654;9.250;2023-05-18T05:47:53;7.23;;;6.30;;
2201;SDS011;1107;48.654;9.250;2023-05-18T05:50:20;8.67;;;5.50;;
2201;SDS011;1107;48.654;9.250;2023-05-18T05:52:47;5.60;;;5.13;;
2201;SDS011;1107;48.654;9.250;2023-05-18T05:55:14;10.90;;;5.33;;
2201;SDS011;1107;48.654;9.250;2023-05-18T05:57:42;9.33;;;5.97;;
2201;SDS011;1107;48.654;9.250;2023-05-18T06:00:10;7.13;;;5.40;;
2201;SDS011;1107;48.654;9.250;2023-05-18T06:02:39;8.57;;;5.33;;
2201;SDS011;1107;48.654;9.250;2023-05-18T06:05:06;9.67;;;5.10;;
2201;SDS011;1107;48.654;9.250;2023-05-18T06:07:34;6.07;;;5.47;;
2201;SDS011;1107;48.654;9.250;2023-05-18T06:10:01;6.30;;;5.40;;
2201;SDS011;1107;48.654;9.250;2023-05-18T06:12:28;4.70;;;4.30;;
2201;SDS011;1107;48.654;9.250;2023-05-18T06:14:56;6.03;;;4.90;;
2201;SDS011;1107;48.654;9.250;2023-05-18T06:17:23;4.53;;;4.23;;
2201;SDS011;1107;48.654;9.250;2023-05-18T06:19:51;9.67;;;4.83;;
2201;SDS011;1107;48.654;9.250;2023-05-18T06:22:18;8.23;;;5.23;;
2201;SDS011;1107;48.654;9.250;2023-05-18T06:24:45;5.37;;;4.40;;
2201;SDS011;1107;48.654;9.250;2023-05-18T06:27:12;7.73;;;4.40;;
2201;SDS011;1107;48.654;9.250;2023-05-18T06:29:40;8.10;;;4.53;;
2201;SDS011;1107;48.654;9.250;2023-05-18T06:32:08;4.63;;;4.23;;
2201;SDS011;1107;48.654;9.250;2023-05-18T06:34:35;14.13;;;4.23;;
2201;SDS011;1107;48.654;9.250;2023-05-18T06:37:03;5.80;;;5.07;;
2201;SDS011;1107;48.654;9.250;2023-05-18T06:39:30;5.00;;;4.50;;
2201;SDS011;1107;48.654;9.250;2023-05-18T06:41:57;6.03;;;4.67;;
2201;SDS011;1107;48.654;9.250;2023-05-18T06:44:24;5.80;;;3.90;;
2201;SDS011;1107;48.654;9.250;2023-05-18T06:46:51;5.23;;;4.83;;
2201;SDS011;1107;48.654;9.250;2023-05-18T06:49:19;5.30;;;4.03;;
2201;SDS011;1107;48.654;9.250;2023-05-18T06:51:46;4.80;;;4.40;;
2201;SDS011;1107;48.654;9.250;2023-05-18T06:54:13;4.90;;;4.60;;
2201;SDS011;1107;48.654;9.250;2023-05-18T06:56:40;6.07;;;4.27;;
2201;SDS011;1107;48.654;9.250;2023-05-18T06:59:07;4.50;;;4.20;;
2201;SDS011;1107;48.654;9.250;2023-05-18T07:01:34;5.80;;;4.77;;
2201;SDS011;1107;48.654;9.250;2023-05-18T07:04:02;5.20;;;4.70;;
2201;SDS011;1107;48.654;9.250;2023-05-18T07:06:30;4.77;;;4.27;;
2201;SDS011;1107;48.654;9.250;2023-05-18T07:08:57;4.90;;;4.40;;
2201;SDS011;1107;48.654;9.250;2023-05-18T07:11:24;7.27;;;6.37;;
2201;SDS011;1107;48.654;9.250;2023-05-18T07:13:51;6.13;;;5.27;;
2201;SDS011;1107;48.654;9.250;2023-05-18T07:16:19;5.47;;;4.97;;
2201;SDS011;1107;48.654;9.250;2023-05-18T07:18:46;5.27;;;4.63;;
2201;SDS011;1107;48.654;9.250;2023-05-18T07:21:13;6.40;;;4.60;;
2201;SDS011;1107;48.654;9.250;2023-05-18T07:23:41;7.03;;;5.23;;
2201;SDS011;1107;48.654;9.250;2023-05-18T07:26:08;7.30;;;5.67;;
2201;SDS011;1107;48.654;9.250;2023-05-18T07:28:36;4.47;;;4.17;;
2201;SDS011;1107;48.654;9.250;2023-05-18T07:31:04;8.67;;;4.90;;
2201;SDS011;1107;48.654;9.250;2023-05-18T07:33:31;4.90;;;4.60;;
2201;SDS011;1107;48.654;9.250;2023-05-18T07:35:58;9.30;;;4.97;;
2201;SDS011;1107;48.654;9.250;2023-05-18T07:38:25;5.20;;;4.80;;
2201;SDS011;1107;48.654;9.250;2023-05-18T07:40:53;5.30;;;5.00;;
2201;SDS011;1107;48.654;9.250;2023-05-18T07:43:20;4.80;;;4.40;;
2201;SDS011;1107;48.654;9.250;2023-05-18T07:45:47;5.93;;;5.20;;
2201;SDS011;1107;48.654;9.250;2023-05-18T07:48:14;6.63;;;5.00;;
2201;SDS011;1107;48.654;9.250;2023-05-18T07:50:41;9.67;;;4.70;;
2201;SDS011;1107;48.654;9.250;2023-05-18T07:53:08;6.07;;;5.67;;
2201;SDS011;1107;48.654;9.250;2023-05-18T07:55:35;5.50;;;5.17;;
2201;SDS011;1107;48.654;9.250;2023-05-18T07:58:03;5.77;;;5.33;;
2201;SDS011;1107;48.654;9.250;2023-05-18T08:00:32;8.10;;;5.50;;
2201;SDS011;1107;48.654;9.250;2023-05-18T08:02:59;6.57;;;5.80;;
2201;SDS011;1107;48.654;9.250;2023-05-18T08:05:26;5.90;;;5.30;;
2201;SDS011;1107;48.654;9.250;2023-05-18T08:07:53;7.23;;;5.93;;
2201;SDS011;1107;48.654;9.250;2023-05-18T08:10:20;6.40;;;5.77;;
2201;SDS011;1107;48.654;9.250;2023-05-18T08:12:47;6.00;;;5.60;;
2201;SDS011;1107;48.654;9.250;2023-05-18T08:15:18;6.30;;;5.80;;
2201;SDS011;1107;48.654;9.250;2023-05-18T08:17:45;8.43;;;6.07;;
2201;SDS011;1107;48.654;9.250;2023-05-18T08:20:12;7.70;;;6.17;;
2201;SDS011;1107;48.654;9.250;2023-05-18T08:22:41;6.80;;;5.97;;
2201;SDS011;1107;48.654;9.250;2023-05-18T08:25:08;9.63;;;6.60;;
2201;SDS011;1107;48.654;9.250;2023-05-18T08:27:35;6.43;;;5.77;;
2201;SDS011;1107;48.654;9.250;2023-05-18T08:30:02;6.70;;;6.20;;
2201;SDS011;1107;48.654;9.250;2023-05-18T08:32:31;6.00;;;5.70;;
2201;SDS011;1107;48.654;9.250;2023-05-18T08:35:01;5.83;;;5.47;;
2201;SDS011;1107;48.654;9.250;2023-05-18T08:37:28;8.30;;;7.00;;
2201;SDS011;1107;48.654;9.250;2023-05-18T08:39:55;6.77;;;6.33;;
2201;SDS011;1107;48.654;9.250;2023-05-18T08:42:26;6.33;;;5.93;;
2201;SDS011;1107;48.654;9.250;2023-05-18T08:45:01;6.17;;;5.70;;
2201;SDS011;1107;48.654;9.250;2023-05-18T08:47:38;7.37;;;6.77;;
2201;SDS011;1107;48.654;9.250;2023-05-18T08:50:06;6.43;;;5.93;;
2201;SDS011;1107;48.654;9.250;2023-05-18T08:52:38;5.83;;;5.53;;
2201;SDS011;1107;48.654;9.250;2023-05-18T08:55:08;6.60;;;6.20;;
2201;SDS011;1107;48.654;9.250;2023-05-18T08:57:37;6.50;;;6.10;;
2201;SDS011;1107;48.654;9.250;2023-05-18T09:00:08;6.60;;;5.97;;
2201;SDS011;1107;48.654;9.250;2023-05-18T09:02:36;11.63;;;6.07;;
2201;SDS011;1107;48.654;9.250;2023-05-18T09:05:06;6.60;;;6.07;;
2201;SDS011;1107;48.654;9.250;2023-05-18T09:07:36;6.10;;;5.50;;
2201;SDS011;1107;48.654;9.250;2023-05-18T09:10:06;6.30;;;5.80;;
2201;SDS011;1107;48.654;9.250;2023-05-18T09:12:35;6.30;;;5.70;;
2201;SDS011;1107;48.654;9.250;2023-05-18T09:15:03;6.43;;;6.00;;
2201;SDS011;1107;48.654;9.250;2023-05-18T09:17:31;6.93;;;6.40;;
2201;SDS011;1107;48.654;9.250;2023-05-18T09:19:59;6.83;;;5.87;;
2201;SDS011;1107;48.654;9.250;2023-05-18T09:22:29;7.90;;;5.90;;
2201;SDS011;1107;48.654;9.250;2023-05-18T09:24:56;5.50;;;5.00;;
2201;SDS011;1107;48.654;9.250;2023-05-18T09:27:23;7.27;;;6.63;;
2201;SDS011;1107;48.654;9.250;2023-05-18T09:29:51;5.97;;;5.30;;
2201;SDS011;1107;48.654;9.250;2023-05-18T09:32:18;7.70;;;5.50;;
2201;SDS011;1107;48.654;9.250;2023-05-18T09:34:45;6.87;;;5.23;;
2201;SDS011;1107;48.654;9.250;2023-05-18T09:37:16;5.07;;;4.67;;
2201;SDS011;1107;48.654;9.250;2023-05-18T09:39:43;6.37;;;5.87;;
2201;SDS011;1107;48.654;9.250;2023-05-18T09:42:10;5.83;;;5.43;;
2201;SDS011;1107;48.654;9.250;2023-05-18T09:44:37;8.30;;;4.93;;
2201;SDS011;1107;48.654;9.250;2023-05-18T09:47:06;6.43;;;5.40;;
2201;SDS011;1107;48.654;9.250;2023-05-18T09:49:34;8.17;;;4.83;;
2201;SDS011;1107;48.654;9.250;2023-05-18T09:52:05;7.93;;;4.77;;
2201;SDS011;1107;48.654;9.250;2023-05-18T09:54:35;5.70;;;5.17;;
2201;SDS011;1107;48.654;9.250;2023-05-18T09:57:03;4.73;;;4.30;;
2201;SDS011;1107;48.654;9.250;2023-05-18T09:59:30;6.03;;;4.47;;
2201;SDS011;1107;48.654;9.250;2023-05-18T10:01:59;15.33;;;5.90;;
2201;SDS011;1107;48.654;9.250;2023-05-18T10:04:35;5.33;;;4.80;;
2201;SDS011;1107;48.654;9.250;2023-05-18T10:07:07;5.13;;;4.60;;
2201;SDS011;1107;48.654;9.250;2023-05-18T10:09:39;5.37;;;4.60;;
2201;SDS011;1107;48.654;9.250;2023-05-18T10:12:10;5.50;;;5.10;;
2201;SDS011;1107;48.654;9.250;2023-05-18T10:14:38;5.80;;;4.70;;
2201;SDS011;1107;48.654;9.250;2023-05-18T10:17:06;5.07;;;4.57;;
2201;SDS011;1107;48.654;9.250;2023-05-18T10:19:33;6.20;;;5.10;;
2201;SDS011;1107;48.654;9.250;2023-05-18T10:22:04;5.20;;;4.80;;
2201;SDS011;1107;48.654;9.250;2023-05-18T10:24:33;6.63;;;4.50;;
2201;SDS011;1107;48.654;9.250;2023-05-18T10:27:22;5.53;;;5.17;;
2201;SDS011;1107;48.654;9.250;2023-05-18T10:30:20;4.80;;;4.47;;
2201;SDS011;1107;48.654;9.250;2023-05-18T10:32:48;6.83;;;4.90;;
2201;SDS011;1107;48.654;9.250;2023-05-18T10:35:16;5.43;;;4.63;;
2201;SDS011;1107;48.654;9.250;2023-05-18T10:37:45;5.17;;;4.83;;
2201;SDS011;1107;48.654;9.250;2023-05-18T10:40:13;4.57;;;4.00;;
2201;SDS011;1107;48.654;9.250;2023-05-18T10:42:41;5.00;;;4.70;;
2201;SDS011;1107;48.654;9.250;2023-05-18T10:45:10;6.00;;;4.77;;
2201;SDS011;1107;48.654;9.250;2023-05-18T10:47:38;4.90;;;4.47;;
2201;SDS011;1107;48.654;9.250;2023-05-18T10:50:07;4.73;;;4.43;;
2201;SDS011;1107;48.654;9.250;2023-05-18T10:52:35;7.30;;;4.70;;
2201;SDS011;1107;48.654;9.250;2023-05-18T10:55:03;5.10;;;4.70;;
2201;SDS011;1107;48.654;9.250;2023-05-18T10:57:32;6.33;;;4.70;;
2201;SDS011;1107;48.654;9.250;2023-05-18T11:00:05;4.37;;;4.07;;
2201;SDS011;1107;48.654;9.250;2023-05-18T11:02:34;10.60;;;3.93;;
2201;SDS011;1107;48.654;9.250;2023-05-18T11:05:04;5.43;;;4.93;;
2201;SDS011;1107;48.654;9.250;2023-05-18T11:07:33;4.57;;;4.07;;
2201;SDS011;1107;48.654;9.250;2023-05-18T11:10:00;4.50;;;4.20;;
2201;SDS011;1107;48.654;9.250;2023-05-18T11:12:29;5.70;;;4.20;;
2201;SDS011;1107;48.654;9.250;2023-05-18T11:14:58;10.40;;;4.90;;
2201;SDS011;1107;48.654;9.250;2023-05-18T11:17:27;7.83;;;4.53;;
2201;SDS011;1107;48.654;9.250;2023-05-18T11:20:10;4.20;;;3.90;;
2201;SDS011;1107;48.654;9.250;2023-05-18T11:22:39;4.50;;;3.60;;
2201;SDS011;1107;48.654;9.250;2023-05-18T11:28:03;4.90;;;4.50;;
2201;SDS011;1107;48.654;9.250;2023-05-18T11:30:43;3.73;;;3.53;;
2201;SDS011;1107;48.654;9.250;2023-05-18T11:33:14;3.97;;;3.50;;
2201;SDS011;1107;48.654;9.250;2023-05-18T11:36:02;4.20;;;3.80;;
2201;SDS011;1107;48.654;9.250;2023-05-18T11:38:50;4.03;;;3.70;;
2201;SDS011;1107;48.654;9.250;2023-05-18T11:44:14;10.93;;;3.83;;
2201;SDS011;1107;48.654;9.250;2023-05-18T11:46:55;3.70;;;3.40;;
2201;SDS011;1107;48.654;9.250;2023-05-18T11:49:28;9.97;;;4.20;;
2201;SDS011;1107;48.654;9.250;2023-05-18T11:52:00;9.93;;;5.20;;
2201;SDS011;1107;48.654;9.250;2023-05-18T11:54:32;4.67;;;4.27;;
2201;SDS011;1107;48.654;9.250;2023-05-18T11:57:11;8.80;;;3.80;;
2201;SDS011;1107;48.654;9.250;2023-05-18T11:59:40;4.40;;;4.00;;
2201;SDS011;1107;48.654;9.250;2023-05-18T12:02:09;4.07;;;3.77;;
2201;SDS011;1107;48.654;9.250;2023-05-18T12:04:42;4.80;;;4.33;;
2201;SDS011;1107;48.654;9.250;2023-05-18T12:07:11;11.10;;;3.97;;
2201;SDS011;1107;48.654;9.250;2023-05-18T12:09:39;5.23;;;4.43;;
2201;SDS011;1107;48.654;9.250;2023-05-18T12:12:08;4.43;;;3.40;;
2201;SDS011;1107;48.654;9.250;2023-05-18T12:14:36;4.47;;;4.07;;
2201;SDS011;1107;48.654;9.250;2023-05-18T12:17:04;4.63;;;3.70;;
2201;SDS011;1107;48.654;9.250;2023-05-18T12:19:35;3.83;;;3.53;;
2201;SDS011;1107;48.654;9.250;2023-05-18T12:22:05;9.10;;;4.07;;
2201;SDS011;1107;48.654;9.250;2023-05-18T12:24:34;7.07;;;4.77;;
2201;SDS011;1107;48.654;9.250;2023-05-18T12:27:01;3.60;;;3.30;;
2201;SDS011;1107;48.654;9.250;2023-05-18T12:29:30;5.53;;;3.33;;
2201;SDS011;1107;48.654;9.250;2023-05-18T12:31:57;7.47;;;3.50;;
2201;SDS011;1107;48.654;9.250;2023-05-18T12:34:27;6.60;;;3.60;;
2201;SDS011;1107;48.654;9.250;2023-05-18T12:36:55;5.60;;;4.20;;
2201;SDS011;1107;48.654;9.250;2023-05-18T12:39:24;4.87;;;4.53;;
2201;SDS011;1107;48.654;9.250;2023-05-18T12:41:51;4.50;;;3.50;;
2201;SDS011;1107;48.654;9.250;2023-05-18T12:44:19;4.20;;;3.80;;
2201;SDS011;1107;48.654;9.250;2023-05-18T12:46:46;7.90;;;3.63;;
2201;SDS011;1107;48.654;9.250;2023-05-18T12:49:14;4.00;;;3.70;;
2201;SDS011;1107;48.654;9.250;2023-05-18T12:51:44;5.33;;;3.30;;
2201;SDS011;1107;48.654;9.250;2023-05-18T12:54:11;4.73;;;3.40;;
2201;SDS011;1107;48.654;9.250;2023-05-18T12:56:54;7.63;;;3.80;;
2201;SDS011;1107;48.654;9.250;2023-05-18T12:59:25;5.63;;;3.90;;
2201;SDS011;1107;48.654;9.250;2023-05-18T13:01:53;5.10;;;4.07;;
2201;SDS011;1107;48.654;9.250;2023-05-18T13:04:20;7.13;;;3.47;;
2201;SDS011;1107;48.654;9.250;2023-05-18T13:06:48;4.43;;;4.07;;
2201;SDS011;1107;48.654;9.250;2023-05-18T13:09:15;4.87;;;3.50;;
2201;SDS011;1107;48.654;9.250;2023-05-18T13:11:45;4.40;;;3.77;;
2201;SDS011;1107;48.654;9.250;2023-05-18T13:14:18;3.80;;;3.50;;
2201;SDS011;1107;48.654;9.250;2023-05-18T13:16:48;9.30;;;3.20;;
2201;SDS011;1107;48.654;9.250;2023-05-18T13:19:17;3.70;;;3.50;;
2201;SDS011;1107;48.654;9.250;2023-05-18T13:21:44;4.00;;;3.70;;
2201;SDS011;1107;48.654;9.250;2023-05-18T13:24:12;7.70;;;3.60;;
2201;SDS011;1107;48.654;9.250;2023-05-18T13:26:39;3.93;;;3.63;;
2201;SDS011;1107;48.654;9.250;2023-05-18T13:29:06;4.07;;;3.70;;
2201;SDS011;1107;48.654;9.250;2023-05-18T13:31:35;3.30;;;3.00;;
2201;SDS011;1107;48.654;9.250;2023-05-18T13:34:01;3.90;;;3.60;;
2201;SDS011;1107;48.654;9.250;2023-05-18T13:36:29;4.50;;;4.10;;
2201;SDS011;1107;48.654;9.250;2023-05-18T13:38:58;5.03;;;3.70;;
2201;SDS011;1107;48.654;9.250;2023-05-18T13:41:29;7.70;;;3.87;;
2201;SDS011;1107;48.654;9.250;2023-05-18T13:43:56;3.40;;;3.17;;
2201;SDS011;1107;48.654;9.250;2023-05-18T13:46:22;5.03;;;3.47;;
2201;SDS011;1107;48.654;9.250;2023-05-18T13:48:51;4.10;;;3.67;;
2201;SDS011;1107;48.654;9.250;2023-05-18T13:51:18;4.07;;;3.70;;
2201;SDS011;1107;48.654;9.250;2023-05-18T13:53:45;6.37;;;3.43;;
2201;SDS011;1107;48.654;9.250;2023-05-18T13:56:11;5.40;;;3.07;;
2201;SDS011;1107;48.654;9.250;2023-05-18T13:58:38;3.53;;;3.30;;
2201;SDS011;1107;48.654;9.250;2023-05-18T14:01:05;3.30;;;3.10;;
2201;SDS011;1107;48.654;9.250;2023-05-18T14:03:33;5.07;;;3.13;;
2201;SDS011;1107;48.654;9.250;2023-05-18T14:06:02;3.27;;;2.97;;
2201;SDS011;1107;48.654;9.250;2023-05-18T14:08:29;4.67;;;2.53;;
2201;SDS011;1107;48.654;9.250;2023-05-18T14:10:56;5.03;;;3.17;;
2201;SDS011;1107;48.654;9.250;2023-05-18T14:13:23;7.90;;;3.23;;
2201;SDS011;1107;48.654;9.250;2023-05-18T14:15:50;3.47;;;3.23;;
2201;SDS011;1107;48.654;9.250;2023-05-18T14:18:17;9.70;;;3.60;;
2201;SDS011;1107;48.654;9.250;2023-05-18T14:20:44;3.50;;;3.30;;
2201;SDS011;1107;48.654;9.250;2023-05-18T14:23:14;3.73;;;3.43;;
2201;SDS011;1107;48.654;9.250;2023-05-18T14:25:41;5.50;;;3.40;;
2201;SDS011;1107;48.654;9.250;2023-05-18T14:28:09;4.73;;;3.10;;
2201;SDS011;1107;48.654;9.250;2023-05-18T14:30:37;4.43;;;3.23;;
2201;SDS011;1107;48.654;9.250;2023-05-18T14:33:04;6.70;;;3.93;;
2201;SDS011;1107;48.654;9.250;2023-05-18T14:35:31;3.00;;;2.80;;
2201;SDS011;1107;48.654;9.250;2023-05-18T14:37:58;3.10;;;2.90;;
2201;SDS011;1107;48.654;9.250;2023-05-18T14:40:26;3.47;;;3.27;;
2201;SDS011;1107;48.654;9.250;2023-05-18T14:42:53;5.47;;;2.63;;
2201;SDS011;1107;48.654;9.250;2023-05-18T14:45:20;3.50;;;3.20;;
2201;SDS011;1107;48.654;9.250;2023-05-18T14:47:47;3.20;;;2.90;;
2201;SDS011;1107;48.654;9.250;2023-05-18T14:50:14;14.20;;;3.57;;
2201;SDS011;1107;48.654;9.250;2023-05-18T14:52:41;3.20;;;2.90;;
2201;SDS011;1107;48.654;9.250;2023-05-18T14:55:08;4.70;;;3.60;;
2201;SDS011;1107;48.654;9.250;2023-05-18T14:57:36;3.70;;;3.40;;
2201;SDS011;1107;48.654;9.250;2023-05-18T15:00:03;5.77;;;3.40;;
2201;SDS011;1107;48.654;9.250;2023-05-18T15:02:31;4.07;;;3.73;;
2201;SDS011;1107;48.654;9.250;2023-05-18T15:04:58;3.00;;;2.80;;
2201;SDS011;1107;48.654;9.250;2023-05-18T15:07:25;4.17;;;3.37;;
2201;SDS011;1107;48.654;9.250;2023-05-18T15:09:52;22.37;;;4.50;;
2201;SDS011;1107;48.654;9.250;2023-05-18T15:12:19;5.50;;;3.50;;
2201;SDS011;1107;48.654;9.250;2023-05-18T15:14:48;4.07;;;3.37;;
2201;SDS011;1107;48.654;9.250;2023-05-18T15:17:15;3.73;;;3.30;;
2201;SDS011;1107;48.654;9.250;2023-05-18T15:19:43;4.70;;;3.50;;
2201;SDS011;1107;48.654;9.250;2023-05-18T15:22:11;6.53;;;3.07;;
2201;SDS011;1107;48.654;9.250;2023-05-18T15:24:38;3.40;;;3.10;;
2201;SDS011;1107;48.654;9.250;2023-05-18T15:27:04;5.57;;;3.17;;
2201;SDS011;1107;48.654;9.250;2023-05-18T15:29:32;5.03;;;3.10;;
2201;SDS011;1107;48.654;9.250;2023-05-18T15:32:01;7.53;;;3.67;;
2201;SDS011;1107;48.654;9.250;2023-05-18T15:34:28;5.30;;;3.90;;